createdAt,value
2018-12-10T00:00:01.370Z,6.70
2018-12-10T00:02:29.652Z,6.70
2018-12-10T00:04:57.947Z,6.60
2018-12-10T00:07:26.277Z,6.60
2018-12-10T00:09:54.571Z,6.50
2018-12-10T00:12:22.872Z,6.50
2018-12-10T00:14:51.152Z,6.50
2018-12-10T00:17:19.441Z,6.50
2018-12-10T00:19:47.755Z,6.50
2018-12-10T00:22:16.056Z,6.50
2018-12-10T00:24:44.358Z,6.50
2018-12-10T00:27:12.660Z,6.50
2018-12-10T00:29:40.985Z,6.40
2018-12-10T00:32:09.887Z,6.40
2018-12-10T00:34:38.201Z,6.40
2018-12-10T00:37:06.529Z,6.40
2018-12-10T00:39:34.896Z,6.40
2018-12-10T00:42:03.193Z,6.40
2018-12-10T00:44:31.505Z,6.40
2018-12-10T00:46:59.975Z,6.30
2018-12-10T00:49:28.410Z,6.30
2018-12-10T00:51:56.722Z,6.30
2018-12-10T00:54:24.988Z,6.30
2018-12-10T00:56:54.164Z,6.40
2018-12-10T00:59:22.473Z,6.30
2018-12-10T01:01:50.794Z,6.30
2018-12-10T01:04:19.106Z,6.30
2018-12-10T01:06:47.516Z,6.30
2018-12-10T01:09:15.823Z,6.30
2018-12-10T01:11:44.132Z,6.30
2018-12-10T01:14:12.520Z,6.30
2018-12-10T01:16:40.801Z,6.30
2018-12-10T01:19:09.096Z,6.30
2018-12-10T01:21:37.368Z,6.30
2018-12-10T01:24:05.769Z,6.20
2018-12-10T01:26:35.619Z,6.20
2018-12-10T01:29:04.144Z,6.20
2018-12-10T01:31:32.424Z,6.10
2018-12-10T01:34:00.767Z,6.20
2018-12-10T01:36:29.036Z,6.20
2018-12-10T01:38:57.299Z,6.10
2018-12-10T01:41:25.624Z,6.10
2018-12-10T01:43:53.900Z,6.10
2018-12-10T01:46:22.179Z,6.10
2018-12-10T01:48:50.477Z,6.00
2018-12-10T01:51:18.832Z,5.90
2018-12-10T01:53:47.195Z,5.90
2018-12-10T01:56:15.463Z,5.80
2018-12-10T01:58:43.781Z,5.80
2018-12-10T02:01:12.141Z,5.80
2018-12-10T02:03:41.421Z,5.80
2018-12-10T02:06:10.337Z,5.70
2018-12-10T02:08:38.768Z,5.70
2018-12-10T02:11:07.028Z,5.70
2018-12-10T02:13:36.120Z,5.70
2018-12-10T02:16:04.516Z,5.80
2018-12-10T02:18:32.896Z,5.80
2018-12-10T02:21:01.240Z,5.90
2018-12-10T02:23:29.540Z,5.90
2018-12-10T02:26:04.184Z,5.90
2018-12-10T02:28:38.028Z,5.90
2018-12-10T02:31:06.355Z,5.90
2018-12-10T02:33:34.612Z,5.90
2018-12-10T02:36:02.912Z,5.90
2018-12-10T02:38:31.226Z,5.90
2018-12-10T02:40:59.518Z,5.90
2018-12-10T02:43:27.800Z,5.90
2018-12-10T02:45:56.089Z,5.90
2018-12-10T02:48:24.365Z,5.90
2018-12-10T02:50:52.791Z,5.80
2018-12-10T02:53:21.101Z,5.80
2018-12-10T02:55:49.422Z,5.90
2018-12-10T02:58:17.719Z,5.80
2018-12-10T03:00:46.014Z,5.80
2018-12-10T03:03:14.330Z,5.80
2018-12-10T03:05:42.653Z,5.80
2018-12-10T03:08:11.032Z,5.80
2018-12-10T03:10:39.344Z,5.80
2018-12-10T03:13:07.690Z,5.70
2018-12-10T03:15:36.085Z,5.80
2018-12-10T03:18:04.372Z,5.80
2018-12-10T03:20:32.699Z,5.80
2018-12-10T03:23:01.122Z,5.80
2018-12-10T03:25:29.462Z,5.80
2018-12-10T03:27:57.749Z,5.80
2018-12-10T03:30:26.050Z,5.80
2018-12-10T03:32:54.345Z,5.80
2018-12-10T03:35:22.631Z,5.80
2018-12-10T03:37:50.938Z,5.80
2018-12-10T03:40:19.226Z,5.80
2018-12-10T03:42:47.537Z,5.80
2018-12-10T03:45:15.891Z,5.80
2018-12-10T03:47:44.181Z,5.80
2018-12-10T03:50:12.570Z,5.80
2018-12-10T03:52:40.838Z,5.70
2018-12-10T03:55:09.141Z,5.80
2018-12-10T03:57:37.468Z,5.80
2018-12-10T04:00:05.963Z,5.80
2018-12-10T04:02:34.299Z,5.80
2018-12-10T04:05:02.571Z,5.80
2018-12-10T04:07:30.860Z,5.90
2018-12-10T04:09:59.197Z,5.90
2018-12-10T04:12:27.473Z,5.90
2018-12-10T04:14:55.763Z,5.90
2018-12-10T04:17:24.104Z,5.90
2018-12-10T04:19:52.381Z,5.90
2018-12-10T04:22:20.690Z,5.90
2018-12-10T04:24:48.953Z,5.90
2018-12-10T04:27:17.268Z,5.90
2018-12-10T04:29:45.551Z,5.90
2018-12-10T04:32:13.841Z,5.80
2018-12-10T04:34:42.153Z,5.90
2018-12-10T04:37:10.436Z,5.90
2018-12-10T04:39:38.846Z,5.80
2018-12-10T04:42:07.177Z,5.80
2018-12-10T04:44:35.516Z,5.80
2018-12-10T04:47:03.916Z,5.80
2018-12-10T04:49:32.232Z,5.80
2018-12-10T04:52:00.550Z,5.80
2018-12-10T04:54:28.851Z,5.90
2018-12-10T04:56:57.257Z,5.80
2018-12-10T04:59:25.557Z,5.90
2018-12-10T05:01:54.049Z,5.80
2018-12-10T05:04:22.344Z,5.80
2018-12-10T05:06:50.652Z,5.80
2018-12-10T05:09:18.993Z,5.70
2018-12-10T05:11:47.260Z,5.70
2018-12-10T05:14:15.580Z,5.70
2018-12-10T05:16:43.893Z,5.70
2018-12-10T05:19:12.208Z,5.70
2018-12-10T05:21:40.586Z,5.70
2018-12-10T05:24:08.858Z,5.80
2018-12-10T05:26:37.146Z,5.70
2018-12-10T05:29:05.629Z,5.80
2018-12-10T05:31:33.956Z,5.70
2018-12-10T05:34:02.258Z,5.80
2018-12-10T05:36:30.681Z,5.80
2018-12-10T05:38:59.044Z,5.80
2018-12-10T05:41:27.378Z,5.80
2018-12-10T05:43:55.648Z,5.70
2018-12-10T05:46:24.032Z,5.70
2018-12-10T05:48:52.308Z,5.70
2018-12-10T05:51:21.448Z,5.70
2018-12-10T05:53:49.765Z,5.70
2018-12-10T05:56:18.034Z,5.70
2018-12-10T05:58:46.373Z,5.60
2018-12-10T06:01:14.692Z,5.70
2018-12-10T06:03:43.076Z,5.70
2018-12-10T06:06:11.421Z,5.70
2018-12-10T06:08:39.787Z,5.70
2018-12-10T06:11:08.083Z,5.70
2018-12-10T06:13:36.364Z,5.70
2018-12-10T06:16:04.814Z,5.70
2018-12-10T06:18:33.219Z,5.70
2018-12-10T06:21:01.595Z,5.70
2018-12-10T06:23:29.973Z,5.80
2018-12-10T06:25:58.297Z,5.70
2018-12-10T06:28:26.709Z,5.70
2018-12-10T06:30:55.004Z,5.60
2018-12-10T06:33:23.420Z,5.70
2018-12-10T06:35:51.746Z,5.60
2018-12-10T06:38:20.052Z,5.60
2018-12-10T06:40:48.356Z,5.60
2018-12-10T06:43:17.320Z,5.50
2018-12-10T06:45:45.618Z,5.50
2018-12-10T06:48:13.954Z,5.60
2018-12-10T06:50:42.392Z,5.50
2018-12-10T06:53:10.734Z,5.40
2018-12-10T06:55:39.032Z,5.50
2018-12-10T06:58:07.824Z,5.50
2018-12-10T07:00:36.232Z,5.40
2018-12-10T07:03:04.685Z,5.40
2018-12-10T07:05:33.216Z,5.30
2018-12-10T07:08:01.600Z,5.20
2018-12-10T07:10:29.969Z,5.20
2018-12-10T07:12:58.304Z,5.30
2018-12-10T07:15:26.716Z,5.30
2018-12-10T07:17:55.043Z,5.20
2018-12-10T07:20:23.373Z,5.20
2018-12-10T07:22:51.765Z,5.20
2018-12-10T07:25:20.732Z,5.20
2018-12-10T07:27:49.201Z,5.20
2018-12-10T07:30:17.718Z,5.20
2018-12-10T07:32:46.188Z,5.20
2018-12-10T07:35:18.567Z,5.10
2018-12-10T07:37:46.944Z,5.10
2018-12-10T07:40:15.232Z,5.10
2018-12-10T07:42:43.595Z,5.10
2018-12-10T07:45:11.963Z,5.10
2018-12-10T07:47:40.456Z,5.10
2018-12-10T07:50:08.948Z,5.20
2018-12-10T07:52:37.413Z,5.20
2018-12-10T07:55:05.752Z,5.20
2018-12-10T07:57:34.304Z,5.30
2018-12-10T08:00:02.766Z,5.30
2018-12-10T08:02:31.104Z,5.30
2018-12-10T08:04:59.399Z,5.20
2018-12-10T08:07:27.724Z,5.20
2018-12-10T08:09:56.061Z,5.30
2018-12-10T08:12:24.508Z,5.30
2018-12-10T08:14:52.814Z,5.40
2018-12-10T08:17:21.170Z,5.30
2018-12-10T08:19:50.758Z,5.40
2018-12-10T08:22:19.040Z,5.50
2018-12-10T08:24:47.368Z,5.40
2018-12-10T08:27:15.705Z,5.50
2018-12-10T08:29:44.004Z,5.50
2018-12-10T08:32:12.301Z,5.50
2018-12-10T08:34:41.440Z,5.40
2018-12-10T08:37:10.058Z,5.40
2018-12-10T08:39:38.377Z,5.30
2018-12-10T08:42:06.729Z,5.30
2018-12-10T08:44:35.988Z,5.20
2018-12-10T08:47:04.404Z,5.20
2018-12-10T08:49:32.863Z,5.10
2018-12-10T08:52:01.155Z,5.10
2018-12-10T08:54:29.673Z,5.10
2018-12-10T08:56:58.007Z,5.00
2018-12-10T08:59:26.279Z,5.10
2018-12-10T09:01:54.692Z,5.00
2018-12-10T09:04:23.307Z,5.10
2018-12-10T09:06:51.656Z,5.10
2018-12-10T09:09:20.008Z,5.20
2018-12-10T09:11:48.281Z,5.20
2018-12-10T09:14:17.675Z,5.30
2018-12-10T09:16:46.037Z,5.30
2018-12-10T09:19:14.337Z,5.30
2018-12-10T09:21:42.654Z,5.50
2018-12-10T09:24:10.991Z,5.50
2018-12-10T09:26:39.757Z,5.40
2018-12-10T09:29:08.035Z,5.40
2018-12-10T09:31:38.289Z,5.40
2018-12-10T09:34:06.955Z,5.40
2018-12-10T09:36:41.435Z,5.50
2018-12-10T09:39:12.178Z,5.50
2018-12-10T09:41:43.270Z,5.50
2018-12-10T09:44:11.618Z,5.50
2018-12-10T09:46:43.811Z,5.50
2018-12-10T09:49:12.177Z,5.50
2018-12-10T09:51:40.517Z,5.50
2018-12-10T09:54:08.807Z,5.60
2018-12-10T09:56:37.125Z,5.60
2018-12-10T09:59:05.512Z,5.70
2018-12-10T10:01:34.121Z,5.70
2018-12-10T10:04:03.105Z,5.80
2018-12-10T10:06:31.442Z,5.70
2018-12-10T10:08:59.769Z,5.60
2018-12-10T10:11:28.328Z,5.50
2018-12-10T10:13:56.619Z,5.60
2018-12-10T10:16:26.050Z,5.60
2018-12-10T10:18:54.501Z,5.50
2018-12-10T10:21:22.967Z,5.60
2018-12-10T10:23:51.295Z,5.70
2018-12-10T10:26:19.658Z,5.70
2018-12-10T10:28:48.026Z,5.60
2018-12-10T10:31:16.345Z,5.70
2018-12-10T10:33:44.657Z,5.80
2018-12-10T10:36:12.953Z,5.90
2018-12-10T10:38:41.383Z,6.00
2018-12-10T10:41:09.707Z,5.80
2018-12-10T10:43:38.061Z,5.90
2018-12-10T10:46:12.931Z,5.80
2018-12-10T10:48:41.283Z,5.80
2018-12-10T10:51:09.625Z,5.90
2018-12-10T10:53:38.072Z,5.90
2018-12-10T10:56:06.444Z,5.90
2018-12-10T10:58:34.821Z,6.00
2018-12-10T11:01:09.505Z,6.00
2018-12-10T11:03:39.408Z,6.00
2018-12-10T11:06:08.209Z,6.10
2018-12-10T11:08:36.512Z,6.10
2018-12-10T11:11:04.916Z,6.10
2018-12-10T11:13:33.201Z,6.10
2018-12-10T11:16:01.602Z,6.10
2018-12-10T11:18:30.926Z,6.00
2018-12-10T11:20:59.532Z,5.90
2018-12-10T11:23:27.879Z,6.00
2018-12-10T11:25:56.157Z,6.10
2018-12-10T11:28:24.474Z,6.10
2018-12-10T11:30:52.797Z,6.10
2018-12-10T11:33:21.223Z,6.10
2018-12-10T11:35:50.168Z,6.10
2018-12-10T11:38:18.437Z,6.10
2018-12-10T11:40:46.725Z,6.00
2018-12-10T11:43:15.286Z,5.90
2018-12-10T11:45:43.653Z,5.90
2018-12-10T11:48:18.064Z,5.90
2018-12-10T11:50:46.418Z,5.80
2018-12-10T11:53:14.784Z,5.90
2018-12-10T11:55:43.308Z,5.90
2018-12-10T11:58:11.741Z,5.90
2018-12-10T12:00:40.012Z,5.90
2018-12-10T12:03:08.461Z,5.90
2018-12-10T12:05:36.776Z,5.90
2018-12-10T12:08:05.096Z,5.90
2018-12-10T12:10:33.392Z,5.90
2018-12-10T12:13:01.662Z,5.90
2018-12-10T12:15:30.177Z,6.00
2018-12-10T12:17:58.496Z,6.00
2018-12-10T12:20:26.774Z,6.00
2018-12-10T12:22:55.074Z,5.90
2018-12-10T12:25:23.440Z,5.80
2018-12-10T12:27:51.762Z,5.80
2018-12-10T12:30:20.288Z,5.90
2018-12-10T12:32:49.044Z,5.90
2018-12-10T12:35:17.348Z,6.00
2018-12-10T12:37:45.788Z,6.00
2018-12-10T12:40:14.908Z,5.90
2018-12-10T12:42:43.237Z,5.90
2018-12-10T12:45:11.537Z,5.90
2018-12-10T12:47:39.871Z,5.90
2018-12-10T12:50:09.089Z,5.90
2018-12-10T12:52:37.456Z,5.90
2018-12-10T12:55:06.067Z,5.80
2018-12-10T12:57:34.383Z,5.80
2018-12-10T13:00:02.775Z,5.80
2018-12-10T13:02:31.242Z,5.70
2018-12-10T13:04:59.554Z,5.70
2018-12-10T13:07:27.950Z,5.70
2018-12-10T13:09:56.352Z,5.40
2018-12-10T13:12:24.712Z,5.20
2018-12-10T13:14:53.037Z,5.00
2018-12-10T13:17:21.476Z,4.90
2018-12-10T13:19:49.768Z,4.90
2018-12-10T13:22:18.096Z,5.00
2018-12-10T13:24:46.371Z,5.00
2018-12-10T13:27:14.677Z,5.20
2018-12-10T13:29:42.952Z,5.30
2018-12-10T13:32:11.570Z,5.50
2018-12-10T13:34:39.872Z,5.50
2018-12-10T13:37:08.136Z,5.60
2018-12-10T13:39:36.475Z,5.60
2018-12-10T13:42:04.809Z,5.60
2018-12-10T13:44:33.101Z,5.60
2018-12-10T13:47:01.445Z,5.70
2018-12-10T13:49:29.768Z,5.60
2018-12-10T13:51:58.049Z,5.60
2018-12-10T13:54:26.442Z,5.60
2018-12-10T13:56:54.758Z,5.50
2018-12-10T13:59:23.134Z,5.60
2018-12-10T14:01:51.534Z,5.60
2018-12-10T14:04:24.996Z,5.70
2018-12-10T14:06:53.331Z,5.60
2018-12-10T14:09:22.003Z,5.60
2018-12-10T14:11:50.430Z,5.70
2018-12-10T14:14:19.338Z,5.70
2018-12-10T14:16:47.653Z,5.70
2018-12-10T14:19:15.956Z,5.60
2018-12-10T14:21:44.289Z,5.60
2018-12-10T14:24:12.587Z,5.60
2018-12-10T14:26:40.895Z,5.60
2018-12-10T14:29:09.896Z,5.60
2018-12-10T14:31:38.329Z,5.60
2018-12-10T14:34:11.992Z,5.60
2018-12-10T14:36:40.411Z,5.60
2018-12-10T14:39:10.306Z,5.60
2018-12-10T14:41:38.578Z,5.50
2018-12-10T14:44:07.045Z,5.50
2018-12-10T14:46:35.357Z,5.40
2018-12-10T14:49:04.140Z,5.50
2018-12-10T14:51:32.514Z,5.50
2018-12-10T14:54:00.868Z,5.50
2018-12-10T14:56:29.143Z,5.40
2018-12-10T14:58:57.448Z,5.40
2018-12-10T15:01:25.738Z,5.40
2018-12-10T15:03:54.104Z,5.50
2018-12-10T15:06:22.482Z,5.40
2018-12-10T15:08:50.876Z,5.40
2018-12-10T15:11:19.269Z,5.40
2018-12-10T15:13:47.588Z,5.30
2018-12-10T15:16:15.897Z,5.40
2018-12-10T15:18:44.213Z,5.40
2018-12-10T15:21:12.613Z,5.40
2018-12-10T15:23:40.895Z,5.30
2018-12-10T15:26:09.737Z,5.30
2018-12-10T15:28:38.067Z,5.30
2018-12-10T15:31:06.348Z,5.30
2018-12-10T15:33:34.667Z,5.20
2018-12-10T15:36:03.659Z,5.10
2018-12-10T15:38:31.982Z,5.10
2018-12-10T15:41:00.317Z,5.10
2018-12-10T15:43:28.673Z,5.10
2018-12-10T15:45:56.984Z,5.10
2018-12-10T15:48:25.372Z,5.10
2018-12-10T15:50:53.687Z,5.10
2018-12-10T15:53:22.021Z,5.10
2018-12-10T15:55:50.390Z,5.10
2018-12-10T15:58:18.666Z,5.20
2018-12-10T16:00:46.989Z,5.10
2018-12-10T16:03:15.430Z,5.10
2018-12-10T16:05:43.771Z,5.00
2018-12-10T16:08:12.177Z,5.10
2018-12-10T16:10:40.507Z,5.10
2018-12-10T16:13:08.841Z,5.10
2018-12-10T16:15:37.155Z,5.20
2018-12-10T16:18:05.586Z,5.20
2018-12-10T16:20:33.946Z,5.20
2018-12-10T16:23:02.257Z,5.20
2018-12-10T16:25:30.569Z,5.20
2018-12-10T16:27:58.869Z,5.10
2018-12-10T16:30:27.576Z,5.10
2018-12-10T16:32:55.998Z,5.10
2018-12-10T16:35:24.336Z,5.10
2018-12-10T16:37:52.661Z,5.10
2018-12-10T16:40:21.006Z,5.10
2018-12-10T16:42:49.413Z,5.10
2018-12-10T16:45:17.788Z,5.20
2018-12-10T16:47:46.144Z,5.20
2018-12-10T16:50:14.656Z,5.10
2018-12-10T16:52:43.005Z,5.10
2018-12-10T16:55:11.334Z,5.10
2018-12-10T16:57:39.660Z,5.10
2018-12-10T17:00:11.930Z,5.10
2018-12-10T17:02:40.360Z,5.00
2018-12-10T17:05:09.385Z,4.90
2018-12-10T17:07:38.346Z,4.90
2018-12-10T17:10:09.204Z,4.80
2018-12-10T17:12:37.559Z,4.60
2018-12-10T17:15:09.313Z,4.50
2018-12-10T17:17:38.316Z,4.50
2018-12-10T17:20:07.805Z,4.50
2018-12-10T17:22:36.627Z,4.50
2018-12-10T17:25:06.398Z,4.50
2018-12-10T17:27:35.505Z,4.40
2018-12-10T17:30:05.565Z,4.40
2018-12-10T17:32:33.984Z,4.40
2018-12-10T17:35:02.450Z,4.40
2018-12-10T17:37:31.296Z,4.40
2018-12-10T17:40:00.595Z,4.40
2018-12-10T17:42:29.379Z,4.50
2018-12-10T17:44:58.710Z,4.50
2018-12-10T17:47:27.106Z,4.50
2018-12-10T17:49:56.089Z,4.50
2018-12-10T17:52:24.635Z,4.60
2018-12-10T17:54:54.072Z,4.60
2018-12-10T17:57:23.244Z,4.50
2018-12-10T17:59:51.816Z,4.20
2018-12-10T18:02:21.464Z,4.10
2018-12-10T18:04:50.372Z,4.00
2018-12-10T18:07:19.538Z,4.00
2018-12-10T18:09:48.033Z,4.00
2018-12-10T18:12:17.301Z,4.10
2018-12-10T18:14:45.588Z,4.10
2018-12-10T18:17:14.055Z,4.10
2018-12-10T18:19:42.912Z,4.10
2018-12-10T18:22:11.941Z,4.10
2018-12-10T18:24:41.126Z,4.20
2018-12-10T18:27:09.704Z,4.20
2018-12-10T18:29:38.999Z,4.20
2018-12-10T18:32:07.472Z,4.30
2018-12-10T18:34:36.010Z,4.30
2018-12-10T18:37:05.491Z,4.30
2018-12-10T18:39:34.385Z,4.30
2018-12-10T18:42:03.350Z,4.40
2018-12-10T18:44:31.932Z,4.40
2018-12-10T18:47:00.445Z,4.40
2018-12-10T18:49:29.080Z,4.40
2018-12-10T18:51:58.298Z,4.40
2018-12-10T18:54:27.396Z,4.50
2018-12-10T18:56:56.364Z,4.50
2018-12-10T18:59:25.710Z,4.40
2018-12-10T19:01:54.878Z,4.50
2018-12-10T19:04:23.246Z,4.50
2018-12-10T19:06:51.923Z,4.50
2018-12-10T19:09:20.716Z,4.50
2018-12-10T19:11:50.079Z,4.50
2018-12-10T19:14:18.373Z,4.50
2018-12-10T19:16:46.699Z,4.60
2018-12-10T19:19:15.068Z,4.60
2018-12-10T19:21:44.052Z,4.60
2018-12-10T19:24:13.160Z,4.50
2018-12-10T19:26:41.934Z,4.40
2018-12-10T19:29:10.981Z,4.30
2018-12-10T19:31:40.039Z,4.20
2018-12-10T19:34:08.362Z,4.10
2018-12-10T19:36:36.765Z,4.20
2018-12-10T19:39:07.048Z,4.20
2018-12-10T19:41:36.095Z,4.20
2018-12-10T19:44:05.464Z,4.20
2018-12-10T19:46:34.600Z,4.30
2018-12-10T19:49:03.672Z,4.20
2018-12-10T19:51:33.001Z,4.30
2018-12-10T19:54:01.436Z,4.30
2018-12-10T19:56:30.760Z,4.40
2018-12-10T19:58:59.301Z,4.40
2018-12-10T20:01:27.883Z,4.40
2018-12-10T20:03:56.240Z,4.40
2018-12-10T20:06:30.063Z,4.40
2018-12-10T20:08:59.086Z,4.30
2018-12-10T20:11:28.032Z,4.30
2018-12-10T20:13:56.903Z,4.20
2018-12-10T20:16:26.386Z,4.20
2018-12-10T20:18:55.373Z,4.20
2018-12-10T20:21:25.071Z,4.20
2018-12-10T20:23:54.040Z,4.20
2018-12-10T20:26:23.521Z,4.20
2018-12-10T20:28:53.660Z,4.30
2018-12-10T20:31:21.982Z,4.30
2018-12-10T20:33:50.468Z,4.30
2018-12-10T20:36:18.877Z,4.40
2018-12-10T20:38:47.486Z,4.40
2018-12-10T20:41:16.292Z,4.40
2018-12-10T20:43:45.199Z,4.50
2018-12-10T20:46:13.837Z,4.50
2018-12-10T20:48:42.201Z,4.60
2018-12-10T20:51:11.481Z,4.70
2018-12-10T20:53:40.012Z,4.70
2018-12-10T20:56:08.471Z,4.70
2018-12-10T20:58:37.512Z,4.70
2018-12-10T21:01:06.003Z,4.80
2018-12-10T21:03:34.686Z,4.80
2018-12-10T21:06:09.300Z,4.80
2018-12-10T21:08:38.938Z,4.80
2018-12-10T21:11:07.694Z,4.70
2018-12-10T21:13:37.022Z,4.80
2018-12-10T21:16:05.449Z,4.80
2018-12-10T21:18:34.060Z,4.90
2018-12-10T21:21:02.392Z,4.80
2018-12-10T21:23:30.724Z,4.90
2018-12-10T21:25:59.147Z,4.80
2018-12-10T21:28:27.797Z,4.90
2018-12-10T21:30:56.545Z,4.90
2018-12-10T21:33:25.938Z,4.90
2018-12-10T21:35:54.360Z,4.80
2018-12-10T21:38:23.196Z,4.80
2018-12-10T21:40:51.714Z,4.80
2018-12-10T21:43:20.813Z,4.80
2018-12-10T21:45:49.411Z,4.80
2018-12-10T21:48:18.660Z,4.80
2018-12-10T21:50:47.398Z,4.80
2018-12-10T21:53:17.047Z,4.80
2018-12-10T21:55:45.866Z,4.70
2018-12-10T21:58:14.349Z,4.70
2018-12-10T22:00:43.062Z,4.70
2018-12-10T22:03:11.619Z,4.70
2018-12-10T22:05:40.519Z,4.70
2018-12-10T22:08:09.043Z,4.60
2018-12-10T22:10:37.570Z,4.60
2018-12-10T22:13:06.221Z,4.70
2018-12-10T22:15:34.646Z,4.70
2018-12-10T22:18:03.041Z,4.70
2018-12-10T22:20:31.352Z,4.70
2018-12-10T22:22:59.785Z,4.80
2018-12-10T22:25:28.083Z,4.70
2018-12-10T22:27:56.900Z,4.70
2018-12-10T22:30:25.209Z,4.70
2018-12-10T22:32:53.692Z,4.70
2018-12-10T22:35:22.040Z,4.80
2018-12-10T22:37:50.313Z,4.80
2018-12-10T22:40:18.694Z,4.90
2018-12-10T22:42:46.988Z,4.90
2018-12-10T22:45:15.280Z,4.90
2018-12-10T22:47:43.726Z,4.90
2018-12-10T22:50:12.619Z,4.80
2018-12-10T22:52:41.196Z,4.90
2018-12-10T22:55:09.532Z,4.90
2018-12-10T22:57:37.887Z,4.90
2018-12-10T23:00:08.533Z,4.90
2018-12-10T23:02:36.993Z,4.90
2018-12-10T23:05:06.082Z,4.90
2018-12-10T23:07:34.386Z,4.90
2018-12-10T23:10:02.756Z,4.90
2018-12-10T23:12:31.345Z,4.90
2018-12-10T23:14:59.646Z,4.90
2018-12-10T23:17:27.924Z,4.90
2018-12-10T23:19:56.217Z,4.90
2018-12-10T23:22:24.580Z,4.90
2018-12-10T23:24:52.904Z,4.90
2018-12-10T23:27:22.467Z,4.90
2018-12-10T23:29:50.784Z,4.90
2018-12-10T23:32:19.121Z,4.90
2018-12-10T23:34:47.472Z,4.90
2018-12-10T23:37:15.809Z,4.90
2018-12-10T23:39:44.148Z,5.00
2018-12-10T23:42:13.672Z,4.90
2018-12-10T23:44:47.398Z,4.90
2018-12-10T23:47:15.702Z,4.90
2018-12-10T23:49:44.107Z,4.90
2018-12-10T23:52:12.510Z,4.90
2018-12-10T23:54:40.846Z,4.90
2018-12-10T23:57:09.184Z,4.90
2018-12-10T23:59:37.462Z,4.90
